Strona główna
METAR-TAF:

METAR-TAF

Lotnisko :

Linton-on-Ouse, Anglia

Szerokość geograficzna: 54-03N, Długość geograficzna: 001-15W, wysokość: 16 m

Aktualna obserwacja pogody

Raport powstał 58 minut temu, godzina 20:50 UTC
Cisza
Temperatura 10°C
Wilgotność 93%
Ciśnienie 997 hPa
Widzialność: 7000 m
deszcz

METAR: EGXU 042050Z AUTO 00000KT 7000 RA SCT028/// BKN044/// 10/09 Q0997

czas: 22:48 (21:48 UTC)


TAF: brakujący

Obserwacja i prognoza pogody dla ponad 4000 lotnisk (raport METAR i TAF).

Dostępne stacje oznaczono żółtymi i czerwonymi punktami na mapie.

Najedź kursorem aby zobaczyć nazwę stacji.

Kliknij aby zobaczyć obserwacje i prognozy pogody.

Aby zmienić mapę: kliknij na zielony przycisk z czarnym krzyżykiem, aby powiększyć; na zielony przycisk z myślnikiem, aby pomniejszyć; na zielone strzałki, aby przejść do map sąsiednich.


METAR-TAF: